Time;durP1;ratioP1;P1;durP2;ratioP2;P2;SDS_P1;SDS_P2;PMS_P1;PMS_P2;Temp;Humidity;BMP_temperature;BMP_pressure;BME280_temperature;BME280_humidity;BME280_pressure;Samples;Min_cycle;Max_cycle;Signal;HPM_P1;HPM_P2
2023/04/08 00:02:57;;;;;;;4.22;2.17;;;;;;;7.62;90.27;102005.78;6277252;28;20056;-76
2023/04/08 00:05:59;;;;;;;2.92;1.63;;;;;;;7.59;90.91;102005.88;6277133;28;20044;-76
2023/04/08 00:09:01;;;;;;;6.43;2.70;;;;;;;7.58;90.55;102010.22;6276302;28;20087;-76
2023/04/08 00:12:02;;;;;;;3.38;1.73;;;;;;;7.63;90.02;102003.16;6276903;28;20069;-76
2023/04/08 00:15:04;;;;;;;4.30;2.25;;;;;;;7.62;90.48;102011.88;6276692;28;20053;-76
2023/04/08 00:18:07;;;;;;;3.85;2.13;;;;;;;7.62;89.72;102011.88;6276106;28;20422;-76
2023/04/08 00:21:08;;;;;;;4.22;1.85;;;;;;;7.62;89.69;102004.03;6276601;28;20057;-76
2023/04/08 00:24:10;;;;;;;4.15;2.15;;;;;;;7.59;90.58;102009.34;6276194;28;20053;-76
2023/04/08 00:27:11;;;;;;;4.70;2.33;;;;;;;7.58;90.74;102009.38;6275716;28;20124;-76
2023/04/08 00:30:14;;;;;;;3.22;1.88;;;;;;;7.52;92.19;102010.38;6276210;28;20056;-76
2023/04/08 00:33:17;;;;;;;5.25;2.28;;;;;;;7.52;91.50;102010.38;6275814;28;20456;-76
2023/04/08 00:36:19;;;;;;;4.63;1.95;;;;;;;7.42;93.20;102011.44;6276062;28;20072;-76
2023/04/08 00:39:20;;;;;;;3.30;2.28;;;;;;;7.45;92.83;102010.50;6276293;28;20456;-76
2023/04/08 00:42:21;;;;;;;4.57;2.38;;;;;;;7.43;93.25;102007.06;6275790;28;20418;-76
2023/04/08 00:45:23;;;;;;;5.53;2.90;;;;;;;7.41;93.94;102011.50;6275824;28;20045;-76
2023/04/08 00:48:25;;;;;;;4.43;2.05;;;;;;;7.42;94.18;102014.06;6275749;28;20056;-76
2023/04/08 00:51:28;;;;;;;3.92;2.38;;;;;;;7.47;93.74;102013.97;6275622;28;20434;-76
2023/04/08 00:54:30;;;;;;;4.72;2.67;;;;;;;7.40;93.76;102015.81;6275916;28;20048;-76
2023/04/08 00:57:32;;;;;;;7.72;2.97;;;;;;;7.32;93.86;102018.63;6275422;28;20041;-76
2023/04/08 01:00:37;;;;;;;4.47;2.75;;;;;;;7.30;94.22;102015.16;6275791;28;20056;-76
2023/04/08 01:03:49;;;;;;;3.20;2.03;;;;;;;7.34;93.36;102021.19;6275304;28;20056;-76
2023/04/08 01:06:57;;;;;;;4.57;2.55;;;;;;;7.34;93.20;102016.81;6275212;28;20045;-76
2023/04/08 01:10:02;;;;;;;4.32;2.35;;;;;;;7.32;94.31;102020.38;6275197;28;20049;-76
2023/04/08 01:13:07;;;;;;;9.35;2.75;;;;;;;7.29;94.79;102018.66;6275443;28;20049;-76
2023/04/08 01:16:11;;;;;;;5.03;2.92;;;;;;;7.15;94.79;102015.44;6275281;28;20055;-76
2023/04/08 01:19:22;;;;;;;4.82;3.05;;;;;;;7.20;95.55;102020.59;6275224;28;20048;-76
2023/04/08 01:22:34;;;;;;;6.57;2.75;;;;;;;7.19;94.71;102018.88;6273953;28;20377;-76
2023/04/08 01:25:37;;;;;;;3.35;2.17;;;;;;;7.22;96.09;102011.84;6259183;28;20075;-76
2023/04/08 01:28:42;;;;;;;4.50;2.60;;;;;;;7.23;95.21;102015.31;6272380;28;20040;-76
2023/04/08 01:31:45;;;;;;;4.60;2.58;;;;;;;7.24;95.25;102022.25;6265324;28;20045;-76
2023/04/08 01:34:47;;;;;;;6.50;2.45;;;;;;;7.16;96.49;102013.69;6274603;28;20461;-76
2023/04/08 01:37:50;;;;;;;5.72;2.80;;;;;;;7.21;95.46;102010.09;6274804;28;20049;-76
2023/04/08 01:40:53;;;;;;;5.05;2.13;;;;;;;7.29;95.61;102013.44;6268902;28;20045;-76
2023/04/08 01:43:57;;;;;;;8.98;3.03;;;;;;;7.30;95.08;102009.91;6274293;28;20049;-76
2023/04/08 01:46:59;;;;;;;5.80;3.00;;;;;;;7.12;96.62;102023.34;6266414;28;20037;-76
2023/04/08 01:50:02;;;;;;;5.00;2.58;;;;;;;7.10;97.94;102019.91;6274764;28;20049;-76
2023/04/08 01:53:04;;;;;;;5.40;2.92;;;;;;;7.07;97.87;102018.19;6274715;28;20053;-76
2023/04/08 01:56:10;;;;;;;5.68;2.60;;;;;;;7.04;98.24;102017.38;6277324;28;20056;-76
2023/04/08 01:59:15;;;;;;;5.82;2.90;;;;;;;7.14;98.28;102016.34;6279961;28;20064;-76
2023/04/08 02:02:19;;;;;;;5.40;2.65;;;;;;;7.17;97.24;102013.66;6279823;28;20060;-76
2023/04/08 02:05:21;;;;;;;4.97;2.60;;;;;;;7.12;97.66;102008.50;6279164;28;20345;-76
2023/04/08 02:08:22;;;;;;;3.60;2.33;;;;;;;7.16;97.73;102011.09;6279522;28;20041;-76
2023/04/08 02:11:24;;;;;;;6.57;2.45;;;;;;;7.17;96.94;102013.66;6279643;28;20041;-76
2023/04/08 02:14:28;;;;;;;6.40;2.60;;;;;;;7.19;98.11;102016.25;6279326;28;20053;-76
2023/04/08 02:17:35;;;;;;;5.38;2.85;;;;;;;7.09;97.49;102020.81;6279416;28;20056;-76
2023/04/08 02:20:39;;;;;;;5.38;2.83;;;;;;;6.95;97.69;102023.66;6279520;28;20453;-76
2023/04/08 02:23:45;;;;;;;4.75;2.60;;;;;;;7.00;97.29;102020.97;6279575;28;20429;-76
2023/04/08 02:26:49;;;;;;;6.93;2.60;;;;;;;7.02;99.15;102022.66;6279176;28;20049;-76
2023/04/08 02:29:56;;;;;;;6.22;2.90;;;;;;;7.02;99.24;102017.44;6279330;28;20053;-76
2023/04/08 02:33:01;;;;;;;5.05;2.72;;;;;;;7.01;98.28;102013.09;6271146;28;20052;-76
2023/04/08 02:36:03;;;;;;;7.68;3.05;;;;;;;7.00;98.10;102007.91;6277932;28;20045;-76
2023/04/08 02:39:05;;;;;;;6.82;2.72;;;;;;;7.01;99.03;101997.41;6278814;28;20049;-76
2023/04/08 02:42:06;;;;;;;5.05;2.72;;;;;;;7.05;98.03;102001.69;6275303;28;20053;-76
2023/04/08 02:45:10;;;;;;;5.50;2.88;;;;;;;6.93;97.94;101996.69;6266579;28;20045;-76
2023/04/08 02:48:11;;;;;;;6.45;3.35;;;;;;;6.88;98.86;102008.97;6278560;28;20056;-76
2023/04/08 02:51:13;;;;;;;7.68;3.38;;;;;;;6.92;100.00;102010.66;6278656;28;20434;-76
2023/04/08 02:54:14;;;;;;;9.82;3.92;;;;;;;7.00;100.00;102021.84;6277937;28;20128;-76
2023/04/08 02:57:16;;;;;;;8.00;4.07;;;;;;;7.06;100.00;102018.25;6277944;28;20373;-76
2023/04/08 03:00:19;;;;;;;7.22;4.30;;;;;;;7.07;100.00;102014.72;6278740;28;20144;-76
2023/04/08 03:03:26;;;;;;;8.35;3.50;;;;;;;7.07;100.00;102019.97;6278167;28;20048;-76
2023/04/08 03:06:27;;;;;;;7.40;3.83;;;;;;;7.05;100.00;102025.22;6277951;28;20049;-76
2023/04/08 03:09:29;;;;;;;8.02;3.88;;;;;;;7.03;100.00;102026.13;6278211;28;20045;-76
2023/04/08 03:12:30;;;;;;;6.78;3.42;;;;;;;6.99;100.00;102033.16;6277910;28;20056;-76
2023/04/08 03:15:33;;;;;;;11.48;4.35;;;;;;;7.03;100.00;102031.34;6277865;28;20350;-76
2023/04/08 03:18:35;;;;;;;7.18;3.45;;;;;;;7.04;100.00;102036.56;6277828;28;20045;-76
2023/04/08 03:21:36;;;;;;;9.02;4.10;;;;;;;7.01;100.00;102036.63;6278021;28;20068;-76
2023/04/08 03:24:38;;;;;;;9.80;4.07;;;;;;;6.92;100.00;102033.31;6277761;28;20448;-76
2023/04/08 03:27:39;;;;;;;11.30;4.65;;;;;;;6.88;100.00;102032.50;6277621;28;20052;-76
2023/04/08 03:30:42;;;;;;;7.82;4.05;;;;;;;6.86;100.00;102026.44;6277830;28;20045;-76
2023/04/08 03:33:43;;;;;;;10.25;4.63;;;;;;;6.88;100.00;102029.88;6277510;28;20437;-76
2023/04/08 03:36:45;;;;;;;6.78;3.58;;;;;;;6.87;100.00;102033.38;6277215;28;20058;-76
2023/04/08 03:39:46;;;;;;;10.50;4.85;;;;;;;6.86;100.00;102036.91;6277775;28;20045;-76
2023/04/08 03:42:47;;;;;;;13.30;4.45;;;;;;;6.82;100.00;102032.59;6260900;28;20048;-76
2023/04/08 03:45:50;;;;;;;9.88;4.95;;;;;;;6.95;100.00;102035.84;6263702;28;20060;-77
2023/04/08 03:48:51;;;;;;;10.00;4.22;;;;;;;6.98;100.00;102035.81;6259517;28;20041;-76
2023/04/08 03:51:53;;;;;;;10.77;4.53;;;;;;;6.99;100.00;102041.00;6260666;28;20052;-76
2023/04/08 03:54:54;;;;;;;9.25;4.57;;;;;;;6.94;100.00;102040.22;6269562;28;20040;-76
2023/04/08 03:57:56;;;;;;;8.82;4.60;;;;;;;6.96;100.00;102041.06;6256476;28;20051;-76
2023/04/08 04:00:58;;;;;;;8.52;4.78;;;;;;;6.93;100.00;102035.88;6257530;28;20049;-76
2023/04/08 04:04:00;;;;;;;9.98;4.78;;;;;;;6.96;100.00;102041.06;6261816;28;20044;-76
2023/04/08 04:07:01;;;;;;;12.93;4.78;;;;;;;6.92;100.00;102042.00;6257409;28;20044;-75
2023/04/08 04:10:03;;;;;;;12.15;4.90;;;;;;;6.90;100.00;102050.75;6257851;28;20048;-76
2023/04/08 04:13:05;;;;;;;8.25;4.53;;;;;;;6.86;100.00;102055.19;6259428;28;20528;-76
2023/04/08 04:16:08;;;;;;;11.73;4.35;;;;;;;6.84;100.00;102054.34;6258369;28;20044;-75
2023/04/08 04:19:09;;;;;;;11.50;5.20;;;;;;;6.93;100.00;102061.16;6256540;28;20041;-76
2023/04/08 04:22:12;;;;;;;15.50;4.82;;;;;;;6.96;100.00;102058.50;6258909;28;20043;-76
2023/04/08 04:25:13;;;;;;;9.55;4.47;;;;;;;6.96;100.00;102072.44;6261566;28;20052;-76
2023/04/08 04:28:14;;;;;;;12.07;4.90;;;;;;;6.86;100.00;102082.19;6256946;28;20044;-76
2023/04/08 04:31:21;;;;;;;10.40;4.93;;;;;;;6.96;100.00;102068.97;6256022;28;20040;-76
2023/04/08 04:34:23;;;;;;;14.30;5.55;;;;;;;6.93;100.00;102071.63;6256065;28;20048;-75
2023/04/08 04:37:25;;;;;;;12.48;5.82;;;;;;;6.92;100.00;102062.06;6255628;28;20663;-76
2023/04/08 04:40:26;;;;;;;12.65;5.28;;;;;;;6.88;100.00;102053.41;6255989;28;20048;-76
2023/04/08 04:43:28;;;;;;;15.10;5.90;;;;;;;6.91;100.00;102062.94;6275966;28;20072;-76
2023/04/08 04:46:30;;;;;;;13.48;5.78;;;;;;;6.85;100.00;102069.13;6275711;28;20151;-76
2023/04/08 04:49:32;;;;;;;9.90;4.80;;;;;;;6.81;100.00;102056.97;6275886;28;20044;-76
2023/04/08 04:52:35;;;;;;;14.70;5.60;;;;;;;6.79;100.00;102057.03;6275644;28;20049;-75
2023/04/08 04:55:36;;;;;;;14.10;5.40;;;;;;;6.78;100.00;102063.16;6275306;28;20052;-76
2023/04/08 04:58:38;;;;;;;11.13;4.60;;;;;;;6.83;100.00;102073.53;6274916;28;20060;-75
2023/04/08 05:01:41;;;;;;;13.30;5.38;;;;;;;6.81;100.00;102085.72;6272856;28;20049;-75
2023/04/08 05:04:42;;;;;;;19.20;6.10;;;;;;;6.79;100.00;102085.75;6274776;28;20429;-76
2023/04/08 05:07:43;;;;;;;7.10;3.88;;;;;;;6.86;100.00;102084.78;6274633;28;20433;-76
2023/04/08 05:10:45;;;;;;;20.25;5.82;;;;;;;6.87;100.00;102093.50;6274920;28;20452;-76
2023/04/08 05:13:46;;;;;;;13.32;6.35;;;;;;;6.82;100.00;102092.69;6274955;28;20045;-76
2023/04/08 05:16:49;;;;;;;10.90;5.53;;;;;;;6.73;100.00;102098.06;6274460;28;20056;-75
2023/04/08 05:19:50;;;;;;;13.88;6.20;;;;;;;6.82;100.00;102097.94;6275150;28;20053;-75
2023/04/08 05:22:52;;;;;;;13.10;5.70;;;;;;;6.78;100.00;102104.94;6275371;28;20049;-76
2023/04/08 05:25:53;;;;;;;15.00;5.97;;;;;;;6.81;100.00;102115.34;6275398;28;20053;-76
2023/04/08 05:28:55;;;;;;;11.38;5.60;;;;;;;6.79;100.00;102108.41;6274496;28;20350;-75
2023/04/08 05:31:57;;;;;;;11.15;5.90;;;;;;;6.64;100.00;102116.50;6274353;28;20456;-76
2023/04/08 05:35:02;;;;;;;12.07;5.45;;;;;;;6.70;100.00;102111.16;6275408;28;20203;-75
2023/04/08 05:38:03;;;;;;;16.63;5.70;;;;;;;6.75;100.00;102120.66;6274558;28;20049;-75
2023/04/08 05:41:05;;;;;;;14.73;6.07;;;;;;;6.79;100.00;102121.47;6275172;28;20045;-75
2023/04/08 05:44:06;;;;;;;17.20;7.00;;;;;;;6.68;100.00;102126.03;6275132;28;20048;-75
2023/04/08 05:47:09;;;;;;;11.88;6.22;;;;;;;6.69;100.00;102125.13;6274485;28;20049;-76
2023/04/08 05:50:11;;;;;;;15.57;5.15;;;;;;;6.54;100.00;102124.47;6274966;28;20098;-75
2023/04/08 05:53:13;;;;;;;18.73;5.93;;;;;;;6.51;100.00;102127.13;6274979;28;20045;-75
2023/04/08 05:56:15;;;;;;;15.02;6.32;;;;;;;6.61;100.00;102133.06;6274566;28;20045;-76
2023/04/08 05:59:16;;;;;;;17.58;5.85;;;;;;;6.70;100.00;102132.06;6274935;28;20045;-76
2023/04/08 06:02:19;;;;;;;14.25;6.75;;;;;;;6.68;100.00;102129.50;6274530;28;20049;-75
2023/04/08 06:05:20;;;;;;;13.82;5.60;;;;;;;6.68;100.00;102129.50;6274403;28;20072;-75
2023/04/08 06:08:22;;;;;;;16.40;6.40;;;;;;;6.75;100.00;102135.47;6270863;28;20464;-75
2023/04/08 06:11:23;;;;;;;13.70;5.75;;;;;;;6.80;100.00;102137.13;6274030;28;20056;-76
2023/04/08 06:14:25;;;;;;;11.90;5.57;;;;;;;6.84;100.00;102141.41;6274028;28;20048;-76
2023/04/08 06:17:28;;;;;;;15.02;6.50;;;;;;;6.90;100.00;102145.69;6273420;28;20045;-76
2023/04/08 06:20:30;;;;;;;13.15;5.05;;;;;;;6.93;100.00;102152.63;6274388;28;20052;-76
2023/04/08 06:23:31;;;;;;;13.98;5.72;;;;;;;6.97;100.00;102152.53;6273921;28;20060;-75
2023/04/08 06:26:32;;;;;;;12.10;5.55;;;;;;;6.93;100.00;102153.47;6273844;28;20053;-75
2023/04/08 06:29:34;;;;;;;19.52;5.88;;;;;;;6.93;100.00;102153.47;6273922;28;20045;-75
2023/04/08 06:32:37;;;;;;;16.52;5.55;;;;;;;6.92;100.00;102153.50;6273501;28;20128;-75
2023/04/08 06:35:38;;;;;;;11.88;4.80;;;;;;;6.83;100.00;102158.00;6271664;28;20049;-75
2023/04/08 06:38:40;;;;;;;16.67;5.72;;;;;;;6.91;100.00;102159.63;6273771;28;20045;-75
2023/04/08 06:41:41;;;;;;;13.95;5.93;;;;;;;6.97;100.00;102164.75;6276272;28;20052;-75
2023/04/08 06:44:42;;;;;;;16.90;6.13;;;;;;;6.99;100.00;102171.66;6278957;28;20346;-75
2023/04/08 06:47:45;;;;;;;17.70;6.18;;;;;;;7.04;100.00;102169.88;6278836;28;20426;-76
2023/04/08 06:50:47;;;;;;;15.02;5.97;;;;;;;7.08;100.00;102175.88;6275779;28;20055;-75
2023/04/08 06:53:48;;;;;;;14.15;6.00;;;;;;;6.99;100.00;102174.28;6278315;28;20049;-75
2023/04/08 06:56:49;;;;;;;12.70;5.40;;;;;;;7.02;100.00;102179.47;6278417;28;20053;-75
2023/04/08 06:59:51;;;;;;;12.50;5.70;;;;;;;7.05;100.00;102183.81;6269546;28;20045;-75
2023/04/08 07:02:54;;;;;;;14.38;6.13;;;;;;;7.07;100.00;102192.47;6278196;28;20068;-76
2023/04/08 07:05:55;;;;;;;14.65;6.03;;;;;;;7.07;100.00;102184.63;6277759;28;20132;-75
2023/04/08 07:08:57;;;;;;;15.73;6.20;;;;;;;7.17;100.00;102187.97;6278418;28;20045;-75
2023/04/08 07:11:58;;;;;;;17.00;6.82;;;;;;;7.26;100.00;102185.19;6265590;28;20056;-75
2023/04/08 07:15:00;;;;;;;19.23;6.28;;;;;;;7.29;100.00;102191.25;6264143;28;20461;-76
2023/04/08 07:18:03;;;;;;;17.02;6.00;;;;;;;7.17;100.00;102187.97;6278007;28;20045;-76
2023/04/08 07:21:05;;;;;;;12.63;5.75;;;;;;;7.13;100.00;102200.25;6267994;28;20057;-75
2023/04/08 07:24:06;;;;;;;12.45;5.63;;;;;;;7.16;100.00;102194.09;6268060;28;20053;-76
2023/04/08 07:27:08;;;;;;;17.15;5.20;;;;;;;7.20;100.00;102201.84;6273175;28;20045;-76
2023/04/08 07:30:10;;;;;;;14.05;4.88;;;;;;;7.21;100.00;102200.09;6277699;28;20135;-76
2023/04/08 07:33:13;;;;;;;20.90;7.70;;;;;;;7.29;100.00;102209.53;6277625;28;20056;-76
2023/04/08 07:36:17;;;;;;;18.35;6.85;;;;;;;7.18;100.00;102205.41;6277548;28;20077;-76
2023/04/08 07:39:18;;;;;;;13.30;5.53;;;;;;;7.17;100.00;102204.50;6277683;28;20522;-75
2023/04/08 07:42:19;;;;;;;14.43;5.60;;;;;;;7.15;100.00;102201.06;6275803;28;20056;-75
2023/04/08 07:45:21;;;;;;;17.77;6.30;;;;;;;7.18;100.00;102211.47;6277402;28;20309;-76
2023/04/08 07:48:24;;;;;;;22.42;7.00;;;;;;;7.26;100.00;102214.81;6270643;28;20041;-76
2023/04/08 07:51:26;;;;;;;11.93;5.22;;;;;;;7.19;100.00;102217.56;6267446;28;20045;-76
2023/04/08 07:54:27;;;;;;;15.23;5.50;;;;;;;7.13;100.00;102213.31;6268280;28;20122;-76
2023/04/08 07:57:29;;;;;;;16.30;6.72;;;;;;;7.18;100.00;102221.06;6268119;28;20052;-76
2023/04/08 08:00:32;;;;;;;13.27;5.78;;;;;;;7.16;100.00;102217.59;6273551;28;20446;-76
2023/04/08 08:03:34;;;;;;;11.25;5.43;;;;;;;7.20;100.00;102216.69;6266437;28;20049;-75
2023/04/08 08:06:36;;;;;;;20.38;5.85;;;;;;;7.23;100.00;102212.28;6267705;28;20045;-76
2023/04/08 08:09:37;;;;;;;16.58;5.22;;;;;;;7.34;100.00;102220.78;6276863;28;20040;-76
2023/04/08 08:12:38;;;;;;;11.93;5.50;;;;;;;7.36;100.00;102220.78;6276910;28;20045;-75
2023/04/08 08:15:40;;;;;;;15.88;5.63;;;;;;;7.31;100.00;102226.09;6276859;28;20041;-76
2023/04/08 08:18:42;;;;;;;15.18;5.18;;;;;;;7.28;100.00;102233.97;6276584;28;20052;-76
2023/04/08 08:21:44;;;;;;;13.88;5.93;;;;;;;7.36;100.00;102233.88;6276835;28;20045;-75
2023/04/08 08:24:46;;;;;;;17.63;5.70;;;;;;;7.42;100.00;102230.28;6276337;28;20045;-76
2023/04/08 08:27:47;;;;;;;16.90;5.38;;;;;;;7.49;100.00;102237.13;6276254;28;20163;-75
2023/04/08 08:30:49;;;;;;;13.32;5.55;;;;;;;7.54;100.00;102243.13;6276087;28;20045;-75
2023/04/08 08:33:52;;;;;;;14.77;5.97;;;;;;;7.57;100.00;102249.19;6276247;28;20053;-75
2023/04/08 08:36:53;;;;;;;16.08;5.82;;;;;;;7.69;100.00;102242.03;6275583;28;20055;-75
2023/04/08 08:39:55;;;;;;;11.18;5.25;;;;;;;7.72;100.00;102252.44;6264199;28;20046;-75
2023/04/08 08:42:57;;;;;;;17.15;6.32;;;;;;;7.64;100.00;102252.56;6265307;28;20054;-74
2023/04/08 08:45:59;;;;;;;10.68;5.32;;;;;;;7.54;100.00;102256.22;6268796;28;20130;-75
2023/04/08 08:49:02;;;;;;;12.02;5.80;;;;;;;7.42;100.00;102252.06;6270189;28;20045;-75
2023/04/08 08:52:05;;;;;;;14.52;5.22;;;;;;;7.43;100.00;102247.69;6262715;28;20048;-75
2023/04/08 08:55:07;;;;;;;16.33;5.65;;;;;;;7.49;100.00;102250.19;6275986;28;20362;-75
2023/04/08 08:58:09;;;;;;;12.40;5.50;;;;;;;7.58;100.00;102255.28;6275315;28;20475;-75
2023/04/08 09:01:32;;;;;;;12.82;5.82;;;;;;;7.58;100.00;102256.13;6275598;28;20060;-75
2023/04/08 09:04:35;;;;;;;10.45;5.25;;;;;;;7.68;100.00;102258.63;6273024;28;20048;-75
2023/04/08 09:07:39;;;;;;;14.60;6.00;;;;;;;7.68;100.00;102259.50;6275560;28;20045;-76
2023/04/08 09:10:40;;;;;;;12.07;5.47;;;;;;;7.73;100.00;102264.66;6275025;28;20156;-76
2023/04/08 09:13:43;;;;;;;12.50;5.78;;;;;;;7.74;100.00;102264.59;6275676;28;20049;-75
2023/04/08 09:16:44;;;;;;;12.45;5.32;;;;;;;7.82;100.00;102272.34;6275389;28;20045;-75
2023/04/08 09:20:08;;;;;;;14.32;5.68;;;;;;;7.83;100.00;102264.44;6275236;28;20041;-75
2023/04/08 09:23:10;;;;;;;12.73;5.38;;;;;;;7.84;100.00;102274.00;6275150;28;20171;-75
2023/04/08 09:26:13;;;;;;;14.13;6.25;;;;;;;7.89;100.00;102266.09;6275177;28;20049;-75
2023/04/08 09:29:14;;;;;;;18.63;6.03;;;;;;;7.97;100.00;102273.81;6274987;28;20349;-75
2023/04/08 09:32:16;;;;;;;15.18;5.75;;;;;;;8.02;100.00;102272.81;6275232;28;20049;-75
2023/04/08 09:35:20;;;;;;;17.65;6.47;;;;;;;8.02;100.00;102283.31;6275337;28;20055;-75
2023/04/08 09:38:21;;;;;;;17.50;6.32;;;;;;;7.87;100.00;102278.34;6274803;28;20049;-75
2023/04/08 09:41:23;;;;;;;12.43;5.85;;;;;;;7.92;100.00;102278.25;6274766;28;20045;-75
2023/04/08 09:44:28;;;;;;;11.88;5.22;;;;;;;7.99;100.00;102285.09;6275323;28;20044;-75
2023/04/08 09:47:34;;;;;;;14.00;5.32;;;;;;;8.05;100.00;102291.09;6275095;28;20045;-75
2023/04/08 09:50:45;;;;;;;17.30;5.72;;;;;;;8.00;100.00;102292.09;6275079;28;20044;-75
2023/04/08 09:53:49;;;;;;;16.15;5.78;;;;;;;7.99;100.00;102291.19;6274982;28;20049;-75
2023/04/08 09:56:57;;;;;;;15.77;5.40;;;;;;;7.97;100.00;102287.75;6274447;28;20053;-75
2023/04/08 10:00:05;;;;;;;10.98;4.97;;;;;;;8.00;100.00;102292.94;6272682;28;20051;-75
2023/04/08 10:03:19;;;;;;;15.82;5.90;;;;;;;8.06;100.00;102300.69;6274845;28;20178;-76
2023/04/08 10:06:28;;;;;;;13.80;6.00;;;;;;;8.08;100.00;102296.31;6274228;28;20349;-75
2023/04/08 10:09:31;;;;;;;14.00;6.28;;;;;;;8.05;100.00;102300.72;6274772;28;20501;-76
2023/04/08 10:12:33;;;;;;;13.20;5.22;;;;;;;7.99;100.00;102308.66;6272679;28;20052;-75
2023/04/08 10:15:36;;;;;;;14.00;5.53;;;;;;;8.08;100.00;102305.88;6275283;28;20127;-76
2023/04/08 10:18:38;;;;;;;14.48;4.97;;;;;;;8.21;100.00;102298.66;6277138;28;20068;-75
2023/04/08 10:21:46;;;;;;;18.63;5.95;;;;;;;8.25;100.00;102297.72;6277269;28;20452;-76
2023/04/08 10:25:30;;;;;;;11.97;5.33;;;;;;;8.29;100.00;102300.25;6278544;28;20438;-76
2023/04/08 10:28:32;;;;;;;11.55;5.55;;;;;;;8.28;100.00;102301.16;6278945;28;20417;-76
2023/04/08 10:31:40;;;;;;;11.27;5.43;;;;;;;8.24;100.00;102307.34;6279319;28;20055;-76
2023/04/08 10:34:52;;;;;;;12.05;5.47;;;;;;;8.28;100.00;102301.16;6279537;28;20048;-76
2023/04/08 10:37:54;;;;;;;11.40;4.55;;;;;;;8.36;100.00;102298.41;6273141;28;20068;-76
2023/04/08 10:40:57;;;;;;;15.40;5.53;;;;;;;8.40;100.00;102300.06;6279279;28;20045;-76
2023/04/08 10:43:58;;;;;;;11.40;5.57;;;;;;;8.36;100.00;102306.25;6270906;28;20055;-76
2023/04/08 10:47:00;;;;;;;11.13;4.70;;;;;;;8.42;100.00;102300.94;6273911;28;20434;-76
2023/04/08 10:50:12;;;;;;;11.68;5.72;;;;;;;8.42;100.00;102300.06;6278931;28;20045;-76
2023/04/08 10:53:13;;;;;;;12.48;5.78;;;;;;;8.41;100.00;102300.97;6278694;28;20048;-76
2023/04/08 10:56:17;;;;;;;13.43;5.60;;;;;;;8.51;100.00;102297.25;6278471;28;20048;-76
2023/04/08 10:59:28;;;;;;;13.55;5.80;;;;;;;8.57;100.00;102302.38;6278684;28;20052;-76
2023/04/08 11:02:32;;;;;;;15.13;6.78;;;;;;;8.46;100.00;102296.50;6278691;28;20044;-76
2023/04/08 11:05:35;;;;;;;19.42;6.93;;;;;;;8.50;100.00;102299.03;6274935;28;20045;-76
2023/04/08 11:08:37;;;;;;;16.27;6.28;;;;;;;8.58;100.00;102298.84;6270148;28;20090;-76
2023/04/08 11:11:41;;;;;;;12.50;6.07;;;;;;;8.58;100.00;102302.38;6279810;28;20052;-75
2023/04/08 11:14:43;;;;;;;12.02;5.63;;;;;;;8.52;100.00;102309.47;6280306;28;20049;-76
2023/04/08 11:17:44;;;;;;;18.85;6.65;;;;;;;8.45;100.00;102308.75;6276488;28;20059;-75
2023/04/08 11:20:46;;;;;;;26.85;9.07;;;;;;;8.41;100.00;102307.06;6275980;28;20041;-77
2023/04/08 11:23:50;;;;;;;14.80;5.97;;;;;;;8.54;100.00;102308.56;6276084;28;20056;-76
2023/04/08 11:26:54;;;;;;;16.10;6.72;;;;;;;8.58;100.00;102306.72;6274682;28;20064;-77
2023/04/08 11:29:56;;;;;;;18.85;6.18;;;;;;;8.61;100.00;102306.66;6272539;28;20045;-76
2023/04/08 11:32:57;;;;;;;15.88;7.78;;;;;;;8.52;100.00;102309.47;6276420;28;20045;-76
2023/04/08 11:36:03;;;;;;;16.00;6.93;;;;;;;8.54;100.00;102315.53;6268956;28;20056;-76
2023/04/08 11:39:09;;;;;;;18.17;6.55;;;;;;;8.54;100.00;102311.19;6277545;28;20167;-76
2023/04/08 11:42:30;;;;;;;14.60;7.20;;;;;;;8.62;100.00;102311.00;6277736;28;20464;-76
2023/04/08 11:45:38;;;;;;;13.93;6.05;;;;;;;8.64;100.00;102317.09;6277804;28;20048;-76
2023/04/08 11:48:40;;;;;;;11.90;6.07;;;;;;;8.63;100.00;102315.38;6277379;28;20128;-74
2023/04/08 11:51:55;;;;;;;19.67;6.47;;;;;;;8.59;100.00;102317.19;6277586;28;20446;-76
2023/04/08 11:54:56;;;;;;;16.42;7.13;;;;;;;8.60;100.00;102325.91;6277511;28;20053;-77
2023/04/08 11:58:04;;;;;;;13.75;5.82;;;;;;;8.62;100.00;102318.88;6272329;28;20052;-76
2023/04/08 12:01:06;;;;;;;13.32;6.28;;;;;;;8.60;100.00;102318.03;6272675;28;20179;-76
2023/04/08 12:04:09;;;;;;;17.70;6.53;;;;;;;8.54;100.00;102323.38;6272331;28;20061;-76
2023/04/08 12:07:10;;;;;;;16.42;6.63;;;;;;;8.59;100.00;102325.03;6265796;28;20052;-75
2023/04/08 12:10:12;;;;;;;15.13;6.32;;;;;;;8.53;100.00;102324.28;6277055;28;20045;-76
2023/04/08 12:13:15;;;;;;;15.15;6.25;;;;;;;8.59;100.00;102322.44;6275361;28;20053;-76
2023/04/08 12:16:16;;;;;;;14.43;5.70;;;;;;;8.63;100.00;102318.84;6269603;28;20443;-76
2023/04/08 12:19:18;;;;;;;16.30;6.75;;;;;;;8.63;100.00;102320.63;6273270;28;20357;-76
2023/04/08 12:22:19;;;;;;;19.52;8.73;;;;;;;8.59;100.00;102321.56;6275328;28;20061;-76
2023/04/08 12:25:21;;;;;;;14.10;6.30;;;;;;;8.68;100.00;102324.00;6272813;28;20665;-75
2023/04/08 12:28:23;;;;;;;15.38;6.60;;;;;;;8.65;100.00;102326.69;6269287;28;20049;-75
2023/04/08 12:31:26;;;;;;;21.42;8.18;;;;;;;8.60;100.00;102329.38;6270476;28;20061;-76
2023/04/08 12:34:28;;;;;;;15.15;6.63;;;;;;;8.62;100.00;102324.97;6258488;28;20055;-75
2023/04/08 12:37:29;;;;;;;16.55;6.75;;;;;;;8.59;100.00;102327.66;6266209;28;20041;-76
2023/04/08 12:40:31;;;;;;;14.10;6.70;;;;;;;8.61;100.00;102325.88;6268531;28;20052;-75
2023/04/08 12:43:33;;;;;;;16.92;7.18;;;;;;;8.54;100.00;102329.53;6272304;28;20051;-75
2023/04/08 12:46:35;;;;;;;19.58;7.38;;;;;;;8.64;100.00;102320.56;6270918;28;20051;-75
2023/04/08 12:49:36;;;;;;;17.10;8.05;;;;;;;8.64;100.00;102315.34;6271233;28;20048;-75
2023/04/08 12:52:37;;;;;;;14.27;7.13;;;;;;;8.63;100.00;102316.22;6269973;28;20041;-75
2023/04/08 12:55:39;;;;;;;12.45;6.90;;;;;;;8.73;100.00;102327.41;6266572;28;20049;-75
2023/04/08 12:58:42;;;;;;;15.05;7.78;;;;;;;8.78;100.00;102315.06;6267824;28;20045;-75
2023/04/08 13:01:43;;;;;;;15.90;6.85;;;;;;;8.84;100.00;102321.91;6270079;28;20040;-75
2023/04/08 13:04:45;;;;;;;17.15;7.57;;;;;;;8.88;100.00;102321.81;6275966;28;20433;-75
2023/04/08 13:07:46;;;;;;;14.27;6.95;;;;;;;8.95;100.00;102316.44;6273325;28;20334;-75
2023/04/08 13:10:48;;;;;;;19.35;7.38;;;;;;;8.97;100.00;102318.16;6263413;28;20105;-75
2023/04/08 13:13:51;;;;;;;17.92;7.22;;;;;;;9.03;100.00;102315.38;6264903;28;20053;-76
2023/04/08 13:16:52;;;;;;;21.83;7.30;;;;;;;9.10;100.00;102321.38;6270061;28;20085;-76
2023/04/08 13:19:53;;;;;;;16.85;6.97;;;;;;;9.16;100.00;102323.84;6275454;28;20048;-74
2023/04/08 13:22:55;;;;;;;12.63;6.22;;;;;;;9.16;100.00;102323.84;6270826;28;20049;-76
2023/04/08 13:25:56;;;;;;;16.73;7.47;;;;;;;9.21;100.00;102313.25;6274732;28;20131;-75
2023/04/08 13:28:59;;;;;;;15.75;8.30;;;;;;;9.16;100.00;102318.59;6267829;28;20049;-75
2023/04/08 13:32:00;;;;;;;15.02;6.85;;;;;;;9.20;100.00;102319.41;6269317;28;20045;-75
2023/04/08 13:35:02;;;;;;;25.60;7.97;;;;;;;9.26;100.00;102314.88;6275276;28;20049;-76
2023/04/08 13:38:03;;;;;;;24.58;9.25;;;;;;;9.28;100.00;102318.34;6274538;28;20053;-74
2023/04/08 13:41:05;;;;;;;28.20;8.82;;;;;;;9.17;100.00;102316.84;6275270;28;20056;-75
2023/04/08 13:44:08;;;;;;;20.85;7.88;;;;;;;9.22;100.00;102323.72;6274966;28;20052;-75
2023/04/08 13:47:09;;;;;;;14.32;7.13;;;;;;;9.29;100.00;102317.44;6274697;28;20048;-76
2023/04/08 13:50:11;;;;;;;17.15;7.43;;;;;;;9.19;100.00;102325.56;6274377;28;20048;-76
2023/04/08 13:53:12;;;;;;;17.83;7.82;;;;;;;9.17;100.00;102319.47;6274788;28;20049;-76
2023/04/08 13:56:13;;;;;;;17.70;7.78;;;;;;;9.23;100.00;102316.72;6274360;28;20048;-76
2023/04/08 13:59:16;;;;;;;20.63;8.38;;;;;;;9.34;100.00;102325.19;6271765;28;20049;-76
2023/04/08 14:02:17;;;;;;;17.58;7.95;;;;;;;9.30;100.00;102321.78;6271487;28;21401;-76
2023/04/08 14:05:19;;;;;;;15.45;7.88;;;;;;;9.30;100.00;102321.78;6274220;28;20060;-75
2023/04/08 14:08:24;;;;;;;16.10;7.68;;;;;;;9.27;100.00;102328.88;6274291;28;20055;-76